sensor_id;sensor_type;location;lat;lon;timestamp;pressure;altitude;pressure_sealevel;temperature;humidity
3590;BME280;1809;48.470;9.226;2023-03-18T00:00:42;-16427.56;;;9.28;100.00
3590;BME280;1809;48.470;9.226;2023-03-18T00:03:08;-16426.88;;;9.25;100.00
3590;BME280;1809;48.470;9.226;2023-03-18T00:05:33;-16424.63;;;9.17;100.00
3590;BME280;1809;48.470;9.226;2023-03-18T00:07:59;-16423.22;;;9.12;100.00
3590;BME280;1809;48.470;9.226;2023-03-18T00:10:26;-16422.09;;;9.08;100.00
3590;BME280;1809;48.470;9.226;2023-03-18T00:12:51;-16420.53;;;9.02;100.00
3590;BME280;1809;48.470;9.226;2023-03-18T00:15:17;-16420.13;;;9.01;100.00
3590;BME280;1809;48.470;9.226;2023-03-18T00:17:43;-16419.41;;;8.98;100.00
3590;BME280;1809;48.470;9.226;2023-03-18T00:20:10;-16419.84;;;9.00;100.00
3590;BME280;1809;48.470;9.226;2023-03-18T00:22:37;-16419.00;;;8.97;100.00
3590;BME280;1809;48.470;9.226;2023-03-18T00:25:04;-16418.56;;;8.95;100.00
3590;BME280;1809;48.470;9.226;2023-03-18T00:27:32;-16419.28;;;8.98;100.00
3590;BME280;1809;48.470;9.226;2023-03-18T00:29:58;-16421.66;;;9.06;100.00
3590;BME280;1809;48.470;9.226;2023-03-18T00:32:26;-16421.53;;;9.06;100.00
3590;BME280;1809;48.470;9.226;2023-03-18T00:34:52;-16422.50;;;9.09;100.00
3590;BME280;1809;48.470;9.226;2023-03-18T00:37:19;-16419.84;;;9.00;100.00
3590;BME280;1809;48.470;9.226;2023-03-18T00:39:56;-16419.56;;;8.99;100.00
3590;BME280;1809;48.470;9.226;2023-03-18T00:42:22;-16418.16;;;8.94;100.00
3590;BME280;1809;48.470;9.226;2023-03-18T00:44:48;-16417.88;;;8.93;100.00
3590;BME280;1809;48.470;9.226;2023-03-18T00:47:13;-16418.03;;;8.93;100.00
3590;BME280;1809;48.470;9.226;2023-03-18T00:49:38;-16419.56;;;8.99;100.00
3590;BME280;1809;48.470;9.226;2023-03-18T00:52:04;-16418.72;;;8.96;100.00
3590;BME280;1809;48.470;9.226;2023-03-18T00:54:29;-16417.88;;;8.93;100.00
3590;BME280;1809;48.470;9.226;2023-03-18T00:56:55;-16420.69;;;9.03;100.00
3590;BME280;1809;48.470;9.226;2023-03-18T00:59:21;-16422.78;;;9.10;100.00
3590;BME280;1809;48.470;9.226;2023-03-18T01:01:48;-16422.66;;;9.10;100.00
3590;BME280;1809;48.470;9.226;2023-03-18T01:04:13;-16421.81;;;9.07;100.00
3590;BME280;1809;48.470;9.226;2023-03-18T01:06:38;-16421.53;;;9.06;100.00
3590;BME280;1809;48.470;9.226;2023-03-18T01:09:06;-16420.97;;;9.04;100.00
3590;BME280;1809;48.470;9.226;2023-03-18T01:11:33;-16420.69;;;9.03;100.00
3590;BME280;1809;48.470;9.226;2023-03-18T01:13:59;-16423.50;;;9.13;100.00
3590;BME280;1809;48.470;9.226;2023-03-18T01:16:25;-16422.78;;;9.10;100.00
3590;BME280;1809;48.470;9.226;2023-03-18T01:18:51;-16422.09;;;9.08;100.00
3590;BME280;1809;48.470;9.226;2023-03-18T01:21:18;-16421.38;;;9.05;100.00
3590;BME280;1809;48.470;9.226;2023-03-18T01:23:43;-16420.69;;;9.03;100.00
3590;BME280;1809;48.470;9.226;2023-03-18T01:26:09;-16420.41;;;9.02;100.00
3590;BME280;1809;48.470;9.226;2023-03-18T01:28:35;-16420.13;;;9.01;100.00
3590;BME280;1809;48.470;9.226;2023-03-18T01:31:01;-16421.38;;;9.05;100.00
3590;BME280;1809;48.470;9.226;2023-03-18T01:33:26;-16420.53;;;9.02;100.00
3590;BME280;1809;48.470;9.226;2023-03-18T01:35:56;-16424.06;;;9.15;100.00
3590;BME280;1809;48.470;9.226;2023-03-18T01:38:22;-16424.06;;;9.15;100.00
3590;BME280;1809;48.470;9.226;2023-03-18T01:40:48;-16422.09;;;9.08;100.00
3590;BME280;1809;48.470;9.226;2023-03-18T01:43:21;-16420.97;;;9.04;100.00
3590;BME280;1809;48.470;9.226;2023-03-18T01:45:51;-16419.69;;;8.99;100.00
3590;BME280;1809;48.470;9.226;2023-03-18T01:48:19;-16419.84;;;9.00;100.00
3590;BME280;1809;48.470;9.226;2023-03-18T01:50:47;-16420.81;;;9.03;100.00
3590;BME280;1809;48.470;9.226;2023-03-18T01:53:16;-16423.50;;;9.13;100.00
3590;BME280;1809;48.470;9.226;2023-03-18T01:55:44;-16422.50;;;9.09;100.00
3590;BME280;1809;48.470;9.226;2023-03-18T01:58:31;-16424.63;;;9.17;100.00
3590;BME280;1809;48.470;9.226;2023-03-18T02:01:02;-16425.31;;;9.19;100.00
3590;BME280;1809;48.470;9.226;2023-03-18T02:03:29;-16428.56;;;9.31;100.00
3590;BME280;1809;48.470;9.226;2023-03-18T02:05:54;-16432.22;;;9.44;100.00
3590;BME280;1809;48.470;9.226;2023-03-18T02:08:20;-16436.72;;;9.60;100.00
3590;BME280;1809;48.470;9.226;2023-03-18T02:10:45;-16435.88;;;9.57;100.00
3590;BME280;1809;48.470;9.226;2023-03-18T02:13:12;-16435.03;;;9.54;100.00
3590;BME280;1809;48.470;9.226;2023-03-18T02:15:45;-16432.78;;;9.46;100.00
3590;BME280;1809;48.470;9.226;2023-03-18T02:18:49;-16436.72;;;9.60;100.00
3590;BME280;1809;48.470;9.226;2023-03-18T02:22:21;-16433.47;;;9.49;100.00
3590;BME280;1809;48.470;9.226;2023-03-18T02:24:23;-16433.75;;;9.50;100.00
3590;BME280;1809;48.470;9.226;2023-03-18T02:27:02;-16433.75;;;9.50;100.00
3590;BME280;1809;48.470;9.226;2023-03-18T02:29:30;-16436.72;;;9.60;100.00
3590;BME280;1809;48.470;9.226;2023-03-18T02:32:00;-16435.31;;;9.55;100.00
3590;BME280;1809;48.470;9.226;2023-03-18T02:34:28;-16431.38;;;9.41;100.00
3590;BME280;1809;48.470;9.226;2023-03-18T02:36:54;-16429.53;;;9.35;100.00
3590;BME280;1809;48.470;9.226;2023-03-18T02:39:21;-16428.28;;;9.30;100.00
3590;BME280;1809;48.470;9.226;2023-03-18T02:41:47;-16426.03;;;9.22;100.00
3590;BME280;1809;48.470;9.226;2023-03-18T02:44:12;-16422.09;;;9.08;100.00
3590;BME280;1809;48.470;9.226;2023-03-18T02:46:49;-16421.81;;;9.07;100.00
3590;BME280;1809;48.470;9.226;2023-03-18T02:49:16;-16419.00;;;8.97;100.00
3590;BME280;1809;48.470;9.226;2023-03-18T02:51:43;-16419.41;;;8.98;100.00
3590;BME280;1809;48.470;9.226;2023-03-18T02:54:14;-16417.03;;;8.90;100.00
3590;BME280;1809;48.470;9.226;2023-03-18T02:56:41;-16416.75;;;8.89;100.00
3590;BME280;1809;48.470;9.226;2023-03-18T02:59:08;-16416.06;;;8.86;100.00
3590;BME280;1809;48.470;9.226;2023-03-18T03:01:35;-16413.38;;;8.77;100.00
3590;BME280;1809;48.470;9.226;2023-03-18T03:04:01;-16414.78;;;8.82;100.00
3590;BME280;1809;48.470;9.226;2023-03-18T03:06:27;-16415.06;;;8.83;100.00
3590;BME280;1809;48.470;9.226;2023-03-18T03:08:53;-16411.97;;;8.72;100.00
3590;BME280;1809;48.470;9.226;2023-03-18T03:11:18;-16411.41;;;8.70;100.00
3590;BME280;1809;48.470;9.226;2023-03-18T03:13:45;-16410.16;;;8.65;100.00
3590;BME280;1809;48.470;9.226;2023-03-18T03:16:12;-16413.09;;;8.76;100.00
3590;BME280;1809;48.470;9.226;2023-03-18T03:18:38;-16418.16;;;8.94;100.00
3590;BME280;1809;48.470;9.226;2023-03-18T03:21:05;-16415.34;;;8.84;100.00
3590;BME280;1809;48.470;9.226;2023-03-18T03:23:30;-16417.31;;;8.91;100.00
3590;BME280;1809;48.470;9.226;2023-03-18T03:25:56;-16416.19;;;8.87;100.00
3590;BME280;1809;48.470;9.226;2023-03-18T03:28:22;-16414.78;;;8.82;100.00
3590;BME280;1809;48.470;9.226;2023-03-18T03:30:47;-16410.84;;;8.68;100.00
3590;BME280;1809;48.470;9.226;2023-03-18T03:33:14;-16408.03;;;8.57;100.00
3590;BME280;1809;48.470;9.226;2023-03-18T03:35:40;-16406.78;;;8.53;100.00
3590;BME280;1809;48.470;9.226;2023-03-18T03:38:06;-16405.50;;;8.48;100.00
3590;BME280;1809;48.470;9.226;2023-03-18T03:40:31;-16403.13;;;8.40;100.00
3590;BME280;1809;48.470;9.226;2023-03-18T03:42:57;-16400.03;;;8.29;100.00
3590;BME280;1809;48.470;9.226;2023-03-18T03:45:22;-16399.59;;;8.27;100.00
3590;BME280;1809;48.470;9.226;2023-03-18T03:47:49;-16396.78;;;8.17;100.00
3590;BME280;1809;48.470;9.226;2023-03-18T03:50:16;-16395.09;;;8.11;100.00
3590;BME280;1809;48.470;9.226;2023-03-18T03:52:42;-16395.09;;;8.11;100.00
3590;BME280;1809;48.470;9.226;2023-03-18T03:55:11;-16401.56;;;8.34;100.00
3590;BME280;1809;48.470;9.226;2023-03-18T03:57:37;-16398.63;;;8.24;100.00
3590;BME280;1809;48.470;9.226;2023-03-18T04:00:05;-16397.06;;;8.18;100.00
3590;BME280;1809;48.470;9.226;2023-03-18T04:02:31;-16398.19;;;8.22;100.00
3590;BME280;1809;48.470;9.226;2023-03-18T04:04:57;-16396.50;;;8.16;100.00
3590;BME280;1809;48.470;9.226;2023-03-18T04:07:22;-16396.78;;;8.17;100.00
3590;BME280;1809;48.470;9.226;2023-03-18T04:09:47;-16397.06;;;8.18;100.00
3590;BME280;1809;48.470;9.226;2023-03-18T04:12:13;-16396.22;;;8.15;100.00
3590;BME280;1809;48.470;9.226;2023-03-18T04:14:38;-16396.78;;;8.17;100.00
3590;BME280;1809;48.470;9.226;2023-03-18T04:17:04;-16397.50;;;8.20;100.00
3590;BME280;1809;48.470;9.226;2023-03-18T04:19:29;-16394.53;;;8.09;100.00
3590;BME280;1809;48.470;9.226;2023-03-18T04:21:55;-16390.88;;;7.96;100.00
3590;BME280;1809;48.470;9.226;2023-03-18T04:24:21;-16387.66;;;7.84;100.00
3590;BME280;1809;48.470;9.226;2023-03-18T04:26:46;-16385.53;;;7.77;100.00
3590;BME280;1809;48.470;9.226;2023-03-18T04:29:12;-16386.66;;;7.81;100.00
3590;BME280;1809;48.470;9.226;2023-03-18T04:31:37;-16384.28;;;7.72;100.00
3590;BME280;1809;48.470;9.226;2023-03-18T04:34:03;-16383.28;;;7.69;100.00
3590;BME280;1809;48.470;9.226;2023-03-18T04:36:28;-16381.59;;;7.63;100.00
3590;BME280;1809;48.470;9.226;2023-03-18T04:38:54;-16385.69;;;7.77;100.00
3590;BME280;1809;48.470;9.226;2023-03-18T04:41:19;-16384.84;;;7.74;100.00
3590;BME280;1809;48.470;9.226;2023-03-18T04:43:45;-16387.38;;;7.83;100.00
3590;BME280;1809;48.470;9.226;2023-03-18T04:46:10;-16387.09;;;7.82;100.00
3590;BME280;1809;48.470;9.226;2023-03-18T04:48:37;-16384.69;;;7.74;100.00
3590;BME280;1809;48.470;9.226;2023-03-18T04:51:02;-16384.84;;;7.74;100.00
3590;BME280;1809;48.470;9.226;2023-03-18T04:53:28;-16387.50;;;7.84;100.00
3590;BME280;1809;48.470;9.226;2023-03-18T04:55:53;-16385.69;;;7.77;100.00
3590;BME280;1809;48.470;9.226;2023-03-18T04:58:19;-16385.53;;;7.77;100.00
3590;BME280;1809;48.470;9.226;2023-03-18T05:00:44;-16385.53;;;7.77;100.00
3590;BME280;1809;48.470;9.226;2023-03-18T05:03:10;-16383.72;;;7.70;100.00
3590;BME280;1809;48.470;9.226;2023-03-18T05:05:36;-16380.63;;;7.59;100.00
3590;BME280;1809;48.470;9.226;2023-03-18T05:08:01;-16378.78;;;7.52;100.00
3590;BME280;1809;48.470;9.226;2023-03-18T05:10:27;-16377.94;;;7.49;100.00
3590;BME280;1809;48.470;9.226;2023-03-18T05:12:52;-16374.56;;;7.37;100.00
3590;BME280;1809;48.470;9.226;2023-03-18T05:15:18;-16372.03;;;7.28;100.00
3590;BME280;1809;48.470;9.226;2023-03-18T05:17:43;-16369.09;;;7.18;100.00
3590;BME280;1809;48.470;9.226;2023-03-18T05:20:09;-16369.78;;;7.20;100.00
3590;BME280;1809;48.470;9.226;2023-03-18T05:22:35;-16369.22;;;7.18;100.00
3590;BME280;1809;48.470;9.226;2023-03-18T05:25:01;-16366.97;;;7.10;100.00
3590;BME280;1809;48.470;9.226;2023-03-18T05:27:26;-16367.25;;;7.11;100.00
3590;BME280;1809;48.470;9.226;2023-03-18T05:29:53;-16370.06;;;7.21;100.00
3590;BME280;1809;48.470;9.226;2023-03-18T05:32:20;-16366.69;;;7.09;100.00
3590;BME280;1809;48.470;9.226;2023-03-18T05:34:45;-16366.13;;;7.07;100.00
3590;BME280;1809;48.470;9.226;2023-03-18T05:37:12;-16363.59;;;6.98;100.00
3590;BME280;1809;48.470;9.226;2023-03-18T05:39:38;-16364.44;;;7.01;100.00
3590;BME280;1809;48.470;9.226;2023-03-18T05:42:04;-16362.47;;;6.94;100.00
3590;BME280;1809;48.470;9.226;2023-03-18T05:44:30;-16360.22;;;6.86;100.00
3590;BME280;1809;48.470;9.226;2023-03-18T05:46:57;-16360.50;;;6.87;100.00
3590;BME280;1809;48.470;9.226;2023-03-18T05:49:23;-16358.13;;;6.78;100.00
3590;BME280;1809;48.470;9.226;2023-03-18T05:51:48;-16358.25;;;6.79;100.00
3590;BME280;1809;48.470;9.226;2023-03-18T05:54:14;-16357.56;;;6.76;100.00
3590;BME280;1809;48.470;9.226;2023-03-18T05:56:42;-16358.25;;;6.79;100.00
3590;BME280;1809;48.470;9.226;2023-03-18T05:59:08;-16358.81;;;6.81;100.00
3590;BME280;1809;48.470;9.226;2023-03-18T06:01:35;-16359.81;;;6.84;100.00
3590;BME280;1809;48.470;9.226;2023-03-18T06:04:01;-16360.22;;;6.86;100.00
3590;BME280;1809;48.470;9.226;2023-03-18T06:06:26;-16360.50;;;6.87;100.00
3590;BME280;1809;48.470;9.226;2023-03-18T06:08:53;-16362.47;;;6.94;100.00
3590;BME280;1809;48.470;9.226;2023-03-18T06:11:20;-16364.03;;;6.99;100.00
3590;BME280;1809;48.470;9.226;2023-03-18T06:13:46;-16363.75;;;6.98;100.00
3590;BME280;1809;48.470;9.226;2023-03-18T06:16:11;-16365.28;;;7.04;100.00
3590;BME280;1809;48.470;9.226;2023-03-18T06:18:37;-16366.97;;;7.10;100.00
3590;BME280;1809;48.470;9.226;2023-03-18T06:21:03;-16367.69;;;7.13;100.00
3590;BME280;1809;48.470;9.226;2023-03-18T06:23:28;-16368.66;;;7.16;100.00
3590;BME280;1809;48.470;9.226;2023-03-18T06:25:54;-16370.06;;;7.21;100.00
3590;BME280;1809;48.470;9.226;2023-03-18T06:28:19;-16371.47;;;7.26;100.00
3590;BME280;1809;48.470;9.226;2023-03-18T06:30:45;-16373.59;;;7.34;100.00
3590;BME280;1809;48.470;9.226;2023-03-18T06:33:10;-16376.25;;;7.43;100.00
3590;BME280;1809;48.470;9.226;2023-03-18T06:35:36;-16381.31;;;7.62;100.00
3590;BME280;1809;48.470;9.226;2023-03-18T06:38:01;-16382.72;;;7.67;100.00
3590;BME280;1809;48.470;9.226;2023-03-18T06:40:27;-16388.78;;;7.88;100.00
3590;BME280;1809;48.470;9.226;2023-03-18T06:42:52;-16394.81;;;8.10;100.00
3590;BME280;1809;48.470;9.226;2023-03-18T06:45:17;-16397.34;;;8.19;100.00
3590;BME280;1809;48.470;9.226;2023-03-18T06:47:43;-16400.88;;;8.32;100.00
3590;BME280;1809;48.470;9.226;2023-03-18T06:50:12;-16407.19;;;8.54;100.00
3590;BME280;1809;48.470;9.226;2023-03-18T06:52:38;-16412.25;;;8.73;100.00
3590;BME280;1809;48.470;9.226;2023-03-18T06:55:04;-16416.47;;;8.88;100.00
3590;BME280;1809;48.470;9.226;2023-03-18T06:57:40;-16416.47;;;8.88;100.00
3590;BME280;1809;48.470;9.226;2023-03-18T07:00:07;-16417.44;;;8.91;100.00
3590;BME280;1809;48.470;9.226;2023-03-18T07:02:38;-16416.19;;;8.87;100.00
3590;BME280;1809;48.470;9.226;2023-03-18T07:05:07;-16416.59;;;8.88;100.00
3590;BME280;1809;48.470;9.226;2023-03-18T07:07:33;-16421.25;;;9.05;100.00
3590;BME280;1809;48.470;9.226;2023-03-18T07:10:03;-16425.75;;;9.21;100.00
3590;BME280;1809;48.470;9.226;2023-03-18T07:12:29;-16426.72;;;9.25;100.00
3590;BME280;1809;48.470;9.226;2023-03-18T07:14:55;-16433.06;;;9.47;100.00
3590;BME280;1809;48.470;9.226;2023-03-18T07:17:24;-16438.09;;;9.65;100.00
3590;BME280;1809;48.470;9.226;2023-03-18T07:19:50;-16440.50;;;9.74;100.00
3590;BME280;1809;48.470;9.226;2023-03-18T07:22:17;-16444.28;;;9.88;100.00
3590;BME280;1809;48.470;9.226;2023-03-18T07:24:43;-16448.78;;;10.04;100.00
3590;BME280;1809;48.470;9.226;2023-03-18T07:27:10;-16450.63;;;10.10;100.00
3590;BME280;1809;48.470;9.226;2023-03-18T07:29:37;-16455.53;;;10.28;100.00
3590;BME280;1809;48.470;9.226;2023-03-18T07:32:03;-16459.75;;;10.43;100.00
3590;BME280;1809;48.470;9.226;2023-03-18T07:34:29;-16467.19;;;10.70;100.00
3590;BME280;1809;48.470;9.226;2023-03-18T07:36:55;-16471.25;;;10.85;100.00
3590;BME280;1809;48.470;9.226;2023-03-18T07:39:22;-16476.59;;;11.04;100.00
3590;BME280;1809;48.470;9.226;2023-03-18T07:41:47;-16481.38;;;11.21;100.00
3590;BME280;1809;48.470;9.226;2023-03-18T07:44:16;-16486.84;;;11.41;100.00
3590;BME280;1809;48.470;9.226;2023-03-18T07:46:42;-16490.91;;;11.55;100.00
3590;BME280;1809;48.470;9.226;2023-03-18T07:49:12;-16497.09;;;11.77;100.00
3590;BME280;1809;48.470;9.226;2023-03-18T07:51:37;-16501.31;;;11.93;100.00
3590;BME280;1809;48.470;9.226;2023-03-18T07:54:03;-16509.75;;;12.23;100.00
3590;BME280;1809;48.470;9.226;2023-03-18T07:56:32;-16511.69;;;12.30;100.00
3590;BME280;1809;48.470;9.226;2023-03-18T07:58:59;-16516.19;;;12.46;100.00
3590;BME280;1809;48.470;9.226;2023-03-18T08:01:30;-16519.97;;;12.60;100.00
3590;BME280;1809;48.470;9.226;2023-03-18T08:03:57;-16525.16;;;12.78;100.00
3590;BME280;1809;48.470;9.226;2023-03-18T08:06:23;-16529.81;;;12.95;100.00
3590;BME280;1809;48.470;9.226;2023-03-18T08:08:54;-16538.09;;;13.25;100.00
3590;BME280;1809;48.470;9.226;2023-03-18T08:11:20;-16541.72;;;13.38;100.00
3590;BME280;1809;48.470;9.226;2023-03-18T08:13:49;-16551.13;;;13.72;100.00
3590;BME280;1809;48.470;9.226;2023-03-18T08:16:15;-16558.13;;;13.97;100.00
3590;BME280;1809;48.470;9.226;2023-03-18T08:18:44;-16561.91;;;14.11;100.00
3590;BME280;1809;48.470;9.226;2023-03-18T08:21:09;-16562.34;;;14.12;100.00
3590;BME280;1809;48.470;9.226;2023-03-18T08:23:35;-16564.16;;;14.19;100.00
3590;BME280;1809;48.470;9.226;2023-03-18T08:26:00;-16573.56;;;14.52;100.00
3590;BME280;1809;48.470;9.226;2023-03-18T08:28:26;-16573.44;;;14.52;100.00
3590;BME280;1809;48.470;9.226;2023-03-18T08:30:53;-16575.53;;;14.60;100.00
3590;BME280;1809;48.470;9.226;2023-03-18T08:33:20;-16577.34;;;14.66;100.00
3590;BME280;1809;48.470;9.226;2023-03-18T08:35:46;-16582.69;;;14.85;100.00
3590;BME280;1809;48.470;9.226;2023-03-18T08:38:11;-16588.28;;;15.05;95.62
3590;BME280;1809;48.470;9.226;2023-03-18T08:40:39;-16595.00;;;15.30;77.20
3590;BME280;1809;48.470;9.226;2023-03-18T08:43:05;-16598.66;;;15.43;74.67
3590;BME280;1809;48.470;9.226;2023-03-18T08:45:31;-16600.06;;;15.48;73.11
3590;BME280;1809;48.470;9.226;2023-03-18T08:47:57;-16599.63;;;15.46;69.58
3590;BME280;1809;48.470;9.226;2023-03-18T08:50:23;-16599.91;;;15.47;75.03
3590;BME280;1809;48.470;9.226;2023-03-18T08:52:54;-16602.16;;;15.55;72.57
3590;BME280;1809;48.470;9.226;2023-03-18T08:55:21;-16606.78;;;15.72;85.89
3590;BME280;1809;48.470;9.226;2023-03-18T08:57:47;-16608.59;;;15.79;91.71
3590;BME280;1809;48.470;9.226;2023-03-18T09:00:12;-16608.47;;;15.78;83.96
3590;BME280;1809;48.470;9.226;2023-03-18T09:02:39;-16610.44;;;15.85;92.38
3590;BME280;1809;48.470;9.226;2023-03-18T09:05:06;-16610.84;;;15.87;89.83
3590;BME280;1809;48.470;9.226;2023-03-18T09:07:31;-16607.91;;;15.76;93.20
3590;BME280;1809;48.470;9.226;2023-03-18T09:09:57;-16612.69;;;15.93;89.99
3590;BME280;1809;48.470;9.226;2023-03-18T09:12:22;-16613.22;;;15.95;83.21
3590;BME280;1809;48.470;9.226;2023-03-18T09:14:48;-16615.91;;;16.05;82.40
3590;BME280;1809;48.470;9.226;2023-03-18T09:17:14;-16618.69;;;16.15;83.32
3590;BME280;1809;48.470;9.226;2023-03-18T09:19:40;-16622.34;;;16.28;62.88
3590;BME280;1809;48.470;9.226;2023-03-18T09:22:05;-16621.34;;;16.25;59.74
3590;BME280;1809;48.470;9.226;2023-03-18T09:24:30;-16627.53;;;16.47;62.62
3590;BME280;1809;48.470;9.226;2023-03-18T09:26:56;-16633.97;;;16.70;54.78
3590;BME280;1809;48.470;9.226;2023-03-18T09:29:23;-16636.34;;;16.79;52.74
3590;BME280;1809;48.470;9.226;2023-03-18T09:31:49;-16638.72;;;16.87;78.06
3590;BME280;1809;48.470;9.226;2023-03-18T09:34:14;-16644.31;;;17.07;89.92
3590;BME280;1809;48.470;9.226;2023-03-18T09:36:40;-16648.53;;;17.23;93.61
3590;BME280;1809;48.470;9.226;2023-03-18T09:39:07;-16654.97;;;17.46;94.58
3590;BME280;1809;48.470;9.226;2023-03-18T09:52:17;-16652.88;;;17.38;62.44
3590;BME280;1809;48.470;9.226;2023-03-18T09:55:03;-16648.66;;;17.23;59.13
3590;BME280;1809;48.470;9.226;2023-03-18T09:57:36;-16650.50;;;17.30;59.45
3590;BME280;1809;48.470;9.226;2023-03-18T10:02:56;-16651.63;;;17.34;56.28
3590;BME280;1809;48.470;9.226;2023-03-18T10:05:31;-16652.03;;;17.35;56.93
3590;BME280;1809;48.470;9.226;2023-03-18T10:08:01;-16650.78;;;17.31;54.21
3590;BME280;1809;48.470;9.226;2023-03-18T10:10:40;-16657.22;;;17.54;60.37
3590;BME280;1809;48.470;9.226;2023-03-18T10:13:38;-16661.84;;;17.70;54.37
3590;BME280;1809;48.470;9.226;2023-03-18T10:16:12;-16667.00;;;17.89;49.63
3590;BME280;1809;48.470;9.226;2023-03-18T10:18:41;-16670.22;;;18.01;49.13
3590;BME280;1809;48.470;9.226;2023-03-18T10:21:33;-16676.66;;;18.24;52.00
3590;BME280;1809;48.470;9.226;2023-03-18T10:24:24;-16678.50;;;18.31;47.45
3590;BME280;1809;48.470;9.226;2023-03-18T10:27:19;-16681.56;;;18.42;58.48
3590;BME280;1809;48.470;9.226;2023-03-18T10:32:44;-16690.53;;;18.74;42.73
3590;BME280;1809;48.470;9.226;2023-03-18T10:35:48;-16689.69;;;18.71;42.21
3590;BME280;1809;48.470;9.226;2023-03-18T10:38:35;-16693.31;;;18.84;42.83
3590;BME280;1809;48.470;9.226;2023-03-18T10:41:13;-16699.19;;;19.05;42.09
3590;BME280;1809;48.470;9.226;2023-03-18T10:43:39;-16702.41;;;19.17;41.18
3590;BME280;1809;48.470;9.226;2023-03-18T10:46:05;-16707.31;;;19.34;39.51
3590;BME280;1809;48.470;9.226;2023-03-18T10:48:35;-16712.91;;;19.55;39.57
3590;BME280;1809;48.470;9.226;2023-03-18T10:56:15;-16698.63;;;19.03;39.60
3590;BME280;1809;48.470;9.226;2023-03-18T10:58:41;-16694.44;;;18.88;39.23
3590;BME280;1809;48.470;9.226;2023-03-18T11:01:09;-16692.22;;;18.80;39.48
3590;BME280;1809;48.470;9.226;2023-03-18T11:06:17;-16690.53;;;18.74;39.09
3590;BME280;1809;48.470;9.226;2023-03-18T11:08:46;-16688.84;;;18.68;39.72
3590;BME280;1809;48.470;9.226;2023-03-18T11:11:24;-16694.03;;;18.87;39.59
3590;BME280;1809;48.470;9.226;2023-03-18T11:13:52;-16696.97;;;18.97;39.19
3590;BME280;1809;48.470;9.226;2023-03-18T11:16:40;-16694.03;;;18.87;38.71
3590;BME280;1809;48.470;9.226;2023-03-18T11:22:22;-16691.63;;;18.78;40.07
3590;BME280;1809;48.470;9.226;2023-03-18T11:25:02;-16696.53;;;18.96;39.31
3590;BME280;1809;48.470;9.226;2023-03-18T11:27:57;-16700.59;;;19.10;39.97
3590;BME280;1809;48.470;9.226;2023-03-18T11:30:26;-16700.03;;;19.08;39.40
3590;BME280;1809;48.470;9.226;2023-03-18T11:35:43;-16703.25;;;19.20;39.70
3590;BME280;1809;48.470;9.226;2023-03-18T11:38:15;-16709.28;;;19.42;39.46
3590;BME280;1809;48.470;9.226;2023-03-18T11:40:42;-16706.75;;;19.32;39.04
3590;BME280;1809;48.470;9.226;2023-03-18T11:43:21;-16702.13;;;19.16;39.63
3590;BME280;1809;48.470;9.226;2023-03-18T11:45:56;-16699.19;;;19.05;40.61
3590;BME280;1809;48.470;9.226;2023-03-18T11:56:48;-16702.97;;;19.19;40.09
3590;BME280;1809;48.470;9.226;2023-03-18T12:08:14;-16708.72;;;19.40;39.71
3590;BME280;1809;48.470;9.226;2023-03-18T12:10:38;-16710.94;;;19.48;39.19
3590;BME280;1809;48.470;9.226;2023-03-18T12:13:18;-16700.59;;;19.10;39.68
3590;BME280;1809;48.470;9.226;2023-03-18T12:46:47;-16713.59;;;19.57;39.51
3590;BME280;1809;48.470;9.226;2023-03-18T12:49:24;-16717.25;;;19.70;40.30
3590;BME280;1809;48.470;9.226;2023-03-18T12:52:01;-16715.00;;;19.62;40.39
3590;BME280;1809;48.470;9.226;2023-03-18T12:54:32;-16714.72;;;19.61;40.93
3590;BME280;1809;48.470;9.226;2023-03-18T12:57:04;-16715.44;;;19.64;40.36
3590;BME280;1809;48.470;9.226;2023-03-18T12:59:40;-16715.44;;;19.64;40.98
3590;BME280;1809;48.470;9.226;2023-03-18T13:04:52;-16723.53;;;19.93;40.33
3590;BME280;1809;48.470;9.226;2023-03-18T13:07:36;-16721.84;;;19.87;39.72
3590;BME280;1809;48.470;9.226;2023-03-18T13:10:19;-16724.94;;;19.98;40.61
3590;BME280;1809;48.470;9.226;2023-03-18T13:12:48;-16721.28;;;19.85;39.72
3590;BME280;1809;48.470;9.226;2023-03-18T13:15:30;-16722.69;;;19.90;40.05
3590;BME280;1809;48.470;9.226;2023-03-18T13:18:02;-16729.69;;;20.15;39.51
3590;BME280;1809;48.470;9.226;2023-03-18T13:20:33;-16729.13;;;20.13;39.16
3590;BME280;1809;48.470;9.226;2023-03-18T13:23:16;-16733.31;;;20.28;39.20
3590;BME280;1809;48.470;9.226;2023-03-18T13:34:10;-16734.84;;;20.34;38.32
3590;BME280;1809;48.470;9.226;2023-03-18T13:37:23;-16734.72;;;20.33;38.26
3590;BME280;1809;48.470;9.226;2023-03-18T13:42:42;-16729.81;;;20.16;38.94
3590;BME280;1809;48.470;9.226;2023-03-18T13:48:16;-16735.56;;;20.36;38.69
3590;BME280;1809;48.470;9.226;2023-03-18T13:50:47;-16735.13;;;20.35;38.98
3590;BME280;1809;48.470;9.226;2023-03-18T13:53:27;-16740.44;;;20.54;39.27
3590;BME280;1809;48.470;9.226;2023-03-18T13:58:35;-16739.63;;;20.51;38.30
3590;BME280;1809;48.470;9.226;2023-03-18T14:06:21;-16733.88;;;20.30;38.96
3590;BME280;1809;48.470;9.226;2023-03-18T14:08:51;-16729.13;;;20.13;39.81
3590;BME280;1809;48.470;9.226;2023-03-18T14:13:57;-16726.31;;;20.03;40.07
3590;BME280;1809;48.470;9.226;2023-03-18T14:21:31;-16745.06;;;20.71;39.05
3590;BME280;1809;48.470;9.226;2023-03-18T14:26:46;-16745.06;;;20.71;38.19
3590;BME280;1809;48.470;9.226;2023-03-18T14:29:23;-16750.50;;;20.90;38.20
3590;BME280;1809;48.470;9.226;2023-03-18T14:32:00;-16747.72;;;20.80;37.89
3590;BME280;1809;48.470;9.226;2023-03-18T14:34:33;-16748.13;;;20.82;37.79
3590;BME280;1809;48.470;9.226;2023-03-18T14:39:51;-16744.38;;;20.68;37.79
3590;BME280;1809;48.470;9.226;2023-03-18T14:42:32;-16743.66;;;20.66;38.74
3590;BME280;1809;48.470;9.226;2023-03-18T14:47:46;-16736.41;;;20.39;38.31
3590;BME280;1809;48.470;9.226;2023-03-18T14:50:16;-16733.19;;;20.28;38.82
3590;BME280;1809;48.470;9.226;2023-03-18T14:52:52;-16731.91;;;20.23;39.19
3590;BME280;1809;48.470;9.226;2023-03-18T14:55:30;-16738.22;;;20.46;39.69
3590;BME280;1809;48.470;9.226;2023-03-18T14:57:56;-16736.41;;;20.39;39.54
3590;BME280;1809;48.470;9.226;2023-03-18T15:00:22;-16733.75;;;20.30;39.65
3590;BME280;1809;48.470;9.226;2023-03-18T15:03:02;-16735.41;;;20.36;39.16
3590;BME280;1809;48.470;9.226;2023-03-18T15:05:34;-16736.25;;;20.39;39.44
3590;BME280;1809;48.470;9.226;2023-03-18T15:08:01;-16735.56;;;20.36;39.51
3590;BME280;1809;48.470;9.226;2023-03-18T15:10:31;-16729.13;;;20.13;40.44
3590;BME280;1809;48.470;9.226;2023-03-18T15:12:59;-16727.44;;;20.07;40.08
3590;BME280;1809;48.470;9.226;2023-03-18T15:15:25;-16722.13;;;19.88;40.58
3590;BME280;1809;48.470;9.226;2023-03-18T15:17:51;-16728.56;;;20.11;40.80